Atascosa, Texas
Current Conditions -  °F | °C
As of 4:15 PM on Thursday 23 Oct 2014 (Local Time) from KCVB Reporting Station
Broken Clouds Broken Clouds  
Wind Chill: 84°   Ceiling: 6000
Heat Index: 84°   Visibility: 10mi
Dew Point: 54°   Wind: 0mph
Humidity: 35%   Direction: NA
Pressure: 30.07"   Gusts: NA
Location:  29.28°N, 98.74°W
Report Text: KCVB 232115Z AUTO 00000KT 10SM BKN060 29/12 A3007 RMK AO2 T02910122
Loading
Personal Weather Stations






























Interactive Weather Map
Tropical Storm Tracking
New forecast layout! Learn more

10-Day Weather Forecast

Advertisements
Track Severe Weather on mobile